Hauptseite
METAR-TAF:

METAR-TAF

Flughäfen :

Militärflugplatz Évreux-Fauville

Évreux, Frankreich

Breite: 49-01N, Länge: 001-13E, Höhe: 141 m

Beobachtung

Neuester Wetterbericht von vor 40 Minuten, um 02:30 UTC
Wind 3 kt aus Nord/Nordost
Temperatur 12°C
Luftfeuchtigkeit 76%
Luftdruck 1032 hPa
Sichtweite 10 km oder mehr
keine Wolken unter 1500 m und keine Kumulonimbus oder Gewitterwolken

METAR: LFOE 280230Z AUTO 03003KT CAVOK 12/08 Q1032

Zeit: 05:10 (03:10 UTC)

Prognose

Neuester Wetterbericht von vor 13 Stunden und 10 Minuten, um 14:00 UTC
Gültige Prognose vom 27 um 15 UTC bis 28 um 15 UTC
Wind 8 kt aus Nordost
Sichtweite 10 km oder mehr
keine Wolken unter 1500 m und keine Kumulonimbus oder Gewitterwolken

TAF: LFOE 271400Z 2715/2815 05008KT CAVOK

Wetterbeobachtungen und Prognosen von mehr als 4000 Flughäfen (METAR und TAF Bericht).

Die verfügbaren Stationen werden durch gelbe und rote Markierungen auf der Karte dargestellt.

Führen Sie die Maus auf sie, um den Namen der Station zu sehen.

Darauf klicken, um die Beobachtung von Wetterbeobachtungen und Prognosen zu sehen.

Um die Karte zu ändern : klicken Sie auf den grünen Tasten mit einem schwarzen Kreuz Zum Vergrößern, auf den grünen Button mit einem Gedankenstrich zu verkleinern, oder auf die grünen Pfeile für benachbarte Karten.


METAR-TAF: